<?xml version="1.0" encoding="UTF-8" standalone="no" ?>
<gpx xmlns="http://www.topografix.com/GPX/1/1" xmlns:xsi="http://www.w3.org/2001/XMLSchema-instance" xsi:schemaLocation="http://www.topografix.com/GPX/1/1 http://www.topografix.com/GPX/1/1/gpx.xsd" version="1.1" creator="VisuGPX - https://www.visugpx.com">
  <metadata>
    <name>Monieux - Nesque</name>
  </metadata>
  <trk>
    <name><![CDATA[Circuit VTT n°12 - De Monieux à Saint-Jean-de-Sault]]></name>
    <trkseg>
      <trkpt lat="44.06565" lon="5.35813">
        <ele>654</ele>
        <time>2019-12-08T15:46:08.827Z</time>
      </trkpt>
      <trkpt lat="44.06506" lon="5.35764">
        <ele>653</ele>
        <time>2019-12-08T15:46:09.827Z</time>
      </trkpt>
      <trkpt lat="44.06463" lon="5.35759">
        <ele>651</ele>
        <time>2019-12-08T15:46:10.827Z</time>
      </trkpt>
      <trkpt lat="44.06394" lon="5.35781">
        <ele>643</ele>
        <time>2019-12-08T15:46:11.827Z</time>
      </trkpt>
      <trkpt lat="44.06349" lon="5.35774">
        <ele>644</ele>
        <time>2019-12-08T15:46:12.827Z</time>
      </trkpt>
      <trkpt lat="44.06225" lon="5.35822">
        <ele>632</ele>
        <time>2019-12-08T15:46:13.827Z</time>
      </trkpt>
      <trkpt lat="44.06125" lon="5.35802">
        <ele>632</ele>
        <time>2019-12-08T15:46:14.827Z</time>
      </trkpt>
      <trkpt lat="44.05953" lon="5.3568">
        <ele>629</ele>
        <time>2019-12-08T15:46:15.827Z</time>
      </trkpt>
      <trkpt lat="44.05889" lon="5.35654">
        <ele>629</ele>
        <time>2019-12-08T15:46:16.827Z</time>
      </trkpt>
      <trkpt lat="44.0582" lon="5.3562">
        <ele>629</ele>
        <time>2019-12-08T15:46:17.827Z</time>
      </trkpt>
      <trkpt lat="44.05681" lon="5.35474">
        <ele>633</ele>
        <time>2019-12-08T15:46:18.827Z</time>
      </trkpt>
      <trkpt lat="44.0564" lon="5.3548">
        <ele>636</ele>
        <time>2019-12-08T15:46:19.827Z</time>
      </trkpt>
      <trkpt lat="44.05615" lon="5.35553">
        <ele>638</ele>
        <time>2019-12-08T15:46:20.827Z</time>
      </trkpt>
      <trkpt lat="44.05576" lon="5.35596">
        <ele>645</ele>
        <time>2019-12-08T15:46:21.827Z</time>
      </trkpt>
      <trkpt lat="44.05512" lon="5.35641">
        <ele>659</ele>
        <time>2019-12-08T15:46:22.827Z</time>
      </trkpt>
      <trkpt lat="44.05471" lon="5.35684">
        <ele>669</ele>
        <time>2019-12-08T15:46:23.827Z</time>
      </trkpt>
      <trkpt lat="44.05421" lon="5.35721">
        <ele>681</ele>
        <time>2019-12-08T15:46:24.827Z</time>
      </trkpt>
      <trkpt lat="44.05404" lon="5.35697">
        <ele>685</ele>
        <time>2019-12-08T15:46:25.827Z</time>
      </trkpt>
      <trkpt lat="44.05362" lon="5.3571">
        <ele>690</ele>
        <time>2019-12-08T15:46:26.827Z</time>
      </trkpt>
      <trkpt lat="44.0536" lon="5.35779">
        <ele>685</ele>
        <time>2019-12-08T15:46:27.827Z</time>
      </trkpt>
      <trkpt lat="44.05303" lon="5.35819">
        <ele>687</ele>
        <time>2019-12-08T15:46:28.827Z</time>
      </trkpt>
      <trkpt lat="44.05272" lon="5.35856">
        <ele>687</ele>
        <time>2019-12-08T15:46:29.827Z</time>
      </trkpt>
      <trkpt lat="44.05252" lon="5.35899">
        <ele>684</ele>
        <time>2019-12-08T15:46:30.827Z</time>
      </trkpt>
      <trkpt lat="44.05249" lon="5.35942">
        <ele>680</ele>
        <time>2019-12-08T15:46:31.827Z</time>
      </trkpt>
      <trkpt lat="44.05277" lon="5.3603">
        <ele>670</ele>
        <time>2019-12-08T15:46:32.827Z</time>
      </trkpt>
      <trkpt lat="44.05234" lon="5.36023">
        <ele>678</ele>
        <time>2019-12-08T15:46:33.827Z</time>
      </trkpt>
      <trkpt lat="44.05195" lon="5.35978">
        <ele>688</ele>
        <time>2019-12-08T15:46:34.827Z</time>
      </trkpt>
      <trkpt lat="44.05197" lon="5.35927">
        <ele>692</ele>
        <time>2019-12-08T15:46:35.827Z</time>
      </trkpt>
      <trkpt lat="44.05192" lon="5.3591">
        <ele>694</ele>
        <time>2019-12-08T15:46:36.827Z</time>
      </trkpt>
      <trkpt lat="44.0507" lon="5.35918">
        <ele>706</ele>
        <time>2019-12-08T15:46:37.827Z</time>
      </trkpt>
      <trkpt lat="44.04976" lon="5.35918">
        <ele>711</ele>
        <time>2019-12-08T15:46:38.827Z</time>
      </trkpt>
      <trkpt lat="44.04884" lon="5.35905">
        <ele>716</ele>
        <time>2019-12-08T15:46:39.827Z</time>
      </trkpt>
      <trkpt lat="44.04733" lon="5.35839">
        <ele>729</ele>
        <time>2019-12-08T15:46:40.827Z</time>
      </trkpt>
      <trkpt lat="44.04657" lon="5.35869">
        <ele>736</ele>
        <time>2019-12-08T15:46:41.827Z</time>
      </trkpt>
      <trkpt lat="44.04595" lon="5.35879">
        <ele>742</ele>
        <time>2019-12-08T15:46:42.827Z</time>
      </trkpt>
      <trkpt lat="44.0456" lon="5.35882">
        <ele>743</ele>
        <time>2019-12-08T15:46:43.827Z</time>
      </trkpt>
      <trkpt lat="44.04509" lon="5.35944">
        <ele>752</ele>
        <time>2019-12-08T15:46:44.827Z</time>
      </trkpt>
      <trkpt lat="44.04475" lon="5.35978">
        <ele>758</ele>
        <time>2019-12-08T15:46:45.827Z</time>
      </trkpt>
      <trkpt lat="44.04441" lon="5.3598">
        <ele>760</ele>
        <time>2019-12-08T15:46:46.827Z</time>
      </trkpt>
      <trkpt lat="44.04396" lon="5.35937">
        <ele>757</ele>
        <time>2019-12-08T15:46:47.827Z</time>
      </trkpt>
      <trkpt lat="44.04349" lon="5.35942">
        <ele>760</ele>
        <time>2019-12-08T15:46:48.827Z</time>
      </trkpt>
      <trkpt lat="44.04318" lon="5.35931">
        <ele>759</ele>
        <time>2019-12-08T15:46:49.827Z</time>
      </trkpt>
      <trkpt lat="44.04336" lon="5.35965">
        <ele>764</ele>
        <time>2019-12-08T15:46:50.827Z</time>
      </trkpt>
      <trkpt lat="44.04335" lon="5.36008">
        <ele>769</ele>
        <time>2019-12-08T15:46:51.827Z</time>
      </trkpt>
      <trkpt lat="44.04364" lon="5.36053">
        <ele>773</ele>
        <time>2019-12-08T15:46:52.827Z</time>
      </trkpt>
      <trkpt lat="44.04359" lon="5.36098">
        <ele>780</ele>
        <time>2019-12-08T15:46:53.827Z</time>
      </trkpt>
      <trkpt lat="44.04315" lon="5.36118">
        <ele>784</ele>
        <time>2019-12-08T15:46:54.827Z</time>
      </trkpt>
      <trkpt lat="44.04259" lon="5.36139">
        <ele>789</ele>
        <time>2019-12-08T15:46:55.827Z</time>
      </trkpt>
      <trkpt lat="44.04218" lon="5.36174">
        <ele>795</ele>
        <time>2019-12-08T15:46:56.827Z</time>
      </trkpt>
      <trkpt lat="44.04193" lon="5.36206">
        <ele>802</ele>
        <time>2019-12-08T15:46:57.827Z</time>
      </trkpt>
      <trkpt lat="44.04253" lon="5.36238">
        <ele>807</ele>
        <time>2019-12-08T15:46:58.827Z</time>
      </trkpt>
      <trkpt lat="44.04288" lon="5.36279">
        <ele>809</ele>
        <time>2019-12-08T15:46:59.827Z</time>
      </trkpt>
      <trkpt lat="44.04288" lon="5.36335">
        <ele>813</ele>
        <time>2019-12-08T15:47:00.827Z</time>
      </trkpt>
      <trkpt lat="44.04298" lon="5.36352">
        <ele>812</ele>
        <time>2019-12-08T15:47:01.827Z</time>
      </trkpt>
      <trkpt lat="44.04279" lon="5.36416">
        <ele>813</ele>
        <time>2019-12-08T15:47:02.827Z</time>
      </trkpt>
      <trkpt lat="44.0427" lon="5.36474">
        <ele>811</ele>
        <time>2019-12-08T15:47:03.827Z</time>
      </trkpt>
      <trkpt lat="44.04261" lon="5.36541">
        <ele>811</ele>
        <time>2019-12-08T15:47:04.827Z</time>
      </trkpt>
      <trkpt lat="44.0427" lon="5.36618">
        <ele>809</ele>
        <time>2019-12-08T15:47:05.827Z</time>
      </trkpt>
      <trkpt lat="44.04261" lon="5.36646">
        <ele>810</ele>
        <time>2019-12-08T15:47:06.827Z</time>
      </trkpt>
      <trkpt lat="44.04293" lon="5.36674">
        <ele>805</ele>
        <time>2019-12-08T15:47:07.827Z</time>
      </trkpt>
      <trkpt lat="44.04298" lon="5.3673">
        <ele>803</ele>
        <time>2019-12-08T15:47:08.827Z</time>
      </trkpt>
      <trkpt lat="44.04298" lon="5.36873">
        <ele>808</ele>
        <time>2019-12-08T15:47:09.827Z</time>
      </trkpt>
      <trkpt lat="44.04309" lon="5.36921">
        <ele>808</ele>
        <time>2019-12-08T15:47:10.827Z</time>
      </trkpt>
      <trkpt lat="44.0429" lon="5.36951">
        <ele>809</ele>
        <time>2019-12-08T15:47:11.827Z</time>
      </trkpt>
      <trkpt lat="44.04256" lon="5.36991">
        <ele>812</ele>
        <time>2019-12-08T15:47:12.827Z</time>
      </trkpt>
      <trkpt lat="44.04222" lon="5.37009">
        <ele>813</ele>
        <time>2019-12-08T15:47:13.827Z</time>
      </trkpt>
      <trkpt lat="44.04181" lon="5.37071">
        <ele>812</ele>
        <time>2019-12-08T15:47:14.827Z</time>
      </trkpt>
      <trkpt lat="44.04147" lon="5.37107">
        <ele>813</ele>
        <time>2019-12-08T15:47:15.827Z</time>
      </trkpt>
      <trkpt lat="44.04089" lon="5.37054">
        <ele>815</ele>
        <time>2019-12-08T15:47:16.827Z</time>
      </trkpt>
      <trkpt lat="44.04015" lon="5.3703">
        <ele>814</ele>
        <time>2019-12-08T15:47:17.827Z</time>
      </trkpt>
      <trkpt lat="44.03926" lon="5.37019">
        <ele>811</ele>
        <time>2019-12-08T15:47:18.827Z</time>
      </trkpt>
      <trkpt lat="44.03857" lon="5.37032">
        <ele>810</ele>
        <time>2019-12-08T15:47:19.827Z</time>
      </trkpt>
      <trkpt lat="44.03739" lon="5.36981">
        <ele>802</ele>
        <time>2019-12-08T15:47:20.827Z</time>
      </trkpt>
      <trkpt lat="44.03733" lon="5.37034">
        <ele>803</ele>
        <time>2019-12-08T15:47:21.827Z</time>
      </trkpt>
      <trkpt lat="44.03738" lon="5.37103">
        <ele>804</ele>
        <time>2019-12-08T15:47:22.827Z</time>
      </trkpt>
      <trkpt lat="44.03749" lon="5.37161">
        <ele>805</ele>
        <time>2019-12-08T15:47:23.827Z</time>
      </trkpt>
      <trkpt lat="44.03733" lon="5.37221">
        <ele>806</ele>
        <time>2019-12-08T15:47:24.827Z</time>
      </trkpt>
      <trkpt lat="44.03701" lon="5.3723">
        <ele>805</ele>
        <time>2019-12-08T15:47:25.827Z</time>
      </trkpt>
      <trkpt lat="44.03668" lon="5.37283">
        <ele>804</ele>
        <time>2019-12-08T15:47:26.827Z</time>
      </trkpt>
      <trkpt lat="44.03621" lon="5.3733">
        <ele>805</ele>
        <time>2019-12-08T15:47:27.827Z</time>
      </trkpt>
      <trkpt lat="44.03585" lon="5.37399">
        <ele>807</ele>
        <time>2019-12-08T15:47:28.827Z</time>
      </trkpt>
      <trkpt lat="44.03559" lon="5.37466">
        <ele>808</ele>
        <time>2019-12-08T15:47:29.827Z</time>
      </trkpt>
      <trkpt lat="44.03523" lon="5.37543">
        <ele>811</ele>
        <time>2019-12-08T15:47:30.827Z</time>
      </trkpt>
      <trkpt lat="44.03499" lon="5.3762">
        <ele>813</ele>
        <time>2019-12-08T15:47:31.827Z</time>
      </trkpt>
      <trkpt lat="44.03459" lon="5.37685">
        <ele>815</ele>
        <time>2019-12-08T15:47:32.827Z</time>
      </trkpt>
      <trkpt lat="44.03395" lon="5.3776">
        <ele>819</ele>
        <time>2019-12-08T15:47:33.827Z</time>
      </trkpt>
      <trkpt lat="44.03344" lon="5.37833">
        <ele>821</ele>
        <time>2019-12-08T15:47:34.827Z</time>
      </trkpt>
      <trkpt lat="44.03329" lon="5.38056">
        <ele>826</ele>
        <time>2019-12-08T15:47:35.827Z</time>
      </trkpt>
      <trkpt lat="44.03327" lon="5.38133">
        <ele>827</ele>
        <time>2019-12-08T15:47:36.827Z</time>
      </trkpt>
      <trkpt lat="44.03341" lon="5.38189">
        <ele>828</ele>
        <time>2019-12-08T15:47:37.827Z</time>
      </trkpt>
      <trkpt lat="44.0338" lon="5.38245">
        <ele>831</ele>
        <time>2019-12-08T15:47:38.827Z</time>
      </trkpt>
      <trkpt lat="44.034" lon="5.38309">
        <ele>832</ele>
        <time>2019-12-08T15:47:39.827Z</time>
      </trkpt>
      <trkpt lat="44.03403" lon="5.3841">
        <ele>833</ele>
        <time>2019-12-08T15:47:40.827Z</time>
      </trkpt>
      <trkpt lat="44.03398" lon="5.38472">
        <ele>835</ele>
        <time>2019-12-08T15:47:41.827Z</time>
      </trkpt>
      <trkpt lat="44.03372" lon="5.38524">
        <ele>836</ele>
        <time>2019-12-08T15:47:42.827Z</time>
      </trkpt>
      <trkpt lat="44.03369" lon="5.38588">
        <ele>838</ele>
        <time>2019-12-08T15:47:43.827Z</time>
      </trkpt>
      <trkpt lat="44.03369" lon="5.38648">
        <ele>837</ele>
        <time>2019-12-08T15:47:44.827Z</time>
      </trkpt>
      <trkpt lat="44.03442" lon="5.38777">
        <ele>834</ele>
        <time>2019-12-08T15:47:45.827Z</time>
      </trkpt>
      <trkpt lat="44.03465" lon="5.38845">
        <ele>830</ele>
        <time>2019-12-08T15:47:46.827Z</time>
      </trkpt>
      <trkpt lat="44.03457" lon="5.38912">
        <ele>828</ele>
        <time>2019-12-08T15:47:47.827Z</time>
      </trkpt>
      <trkpt lat="44.03503" lon="5.39026">
        <ele>829</ele>
        <time>2019-12-08T15:47:48.827Z</time>
      </trkpt>
      <trkpt lat="44.03511" lon="5.39101">
        <ele>831</ele>
        <time>2019-12-08T15:47:49.827Z</time>
      </trkpt>
      <trkpt lat="44.03543" lon="5.39135">
        <ele>830</ele>
        <time>2019-12-08T15:47:50.827Z</time>
      </trkpt>
      <trkpt lat="44.03557" lon="5.39212">
        <ele>829</ele>
        <time>2019-12-08T15:47:51.827Z</time>
      </trkpt>
      <trkpt lat="44.03682" lon="5.39283">
        <ele>824</ele>
        <time>2019-12-08T15:47:52.827Z</time>
      </trkpt>
      <trkpt lat="44.03832" lon="5.39322">
        <ele>819</ele>
        <time>2019-12-08T15:47:53.827Z</time>
      </trkpt>
      <trkpt lat="44.03872" lon="5.39371">
        <ele>822</ele>
        <time>2019-12-08T15:47:54.827Z</time>
      </trkpt>
      <trkpt lat="44.03949" lon="5.39418">
        <ele>826</ele>
        <time>2019-12-08T15:47:55.827Z</time>
      </trkpt>
      <trkpt lat="44.04003" lon="5.39448">
        <ele>828</ele>
        <time>2019-12-08T15:47:56.827Z</time>
      </trkpt>
      <trkpt lat="44.04065" lon="5.39498">
        <ele>828</ele>
        <time>2019-12-08T15:47:57.827Z</time>
      </trkpt>
      <trkpt lat="44.04117" lon="5.39498">
        <ele>828</ele>
        <time>2019-12-08T15:47:58.827Z</time>
      </trkpt>
      <trkpt lat="44.04123" lon="5.39448">
        <ele>829</ele>
        <time>2019-12-08T15:47:59.827Z</time>
      </trkpt>
      <trkpt lat="44.04123" lon="5.3938">
        <ele>829</ele>
        <time>2019-12-08T15:48:00.827Z</time>
      </trkpt>
      <trkpt lat="44.04122" lon="5.39272">
        <ele>827</ele>
        <time>2019-12-08T15:48:01.827Z</time>
      </trkpt>
      <trkpt lat="44.04133" lon="5.39195">
        <ele>826</ele>
        <time>2019-12-08T15:48:02.827Z</time>
      </trkpt>
      <trkpt lat="44.04159" lon="5.39069">
        <ele>824</ele>
        <time>2019-12-08T15:48:03.827Z</time>
      </trkpt>
      <trkpt lat="44.04171" lon="5.38933">
        <ele>824</ele>
        <time>2019-12-08T15:48:04.827Z</time>
      </trkpt>
      <trkpt lat="44.04179" lon="5.38822">
        <ele>829</ele>
        <time>2019-12-08T15:48:05.827Z</time>
      </trkpt>
      <trkpt lat="44.04218" lon="5.38768">
        <ele>829</ele>
        <time>2019-12-08T15:48:06.827Z</time>
      </trkpt>
      <trkpt lat="44.04241" lon="5.38699">
        <ele>828</ele>
        <time>2019-12-08T15:48:07.827Z</time>
      </trkpt>
      <trkpt lat="44.0429" lon="5.38635">
        <ele>827</ele>
        <time>2019-12-08T15:48:08.827Z</time>
      </trkpt>
      <trkpt lat="44.04318" lon="5.38536">
        <ele>825</ele>
        <time>2019-12-08T15:48:09.827Z</time>
      </trkpt>
      <trkpt lat="44.04369" lon="5.38442">
        <ele>827</ele>
        <time>2019-12-08T15:48:10.827Z</time>
      </trkpt>
      <trkpt lat="44.04427" lon="5.38399">
        <ele>830</ele>
        <time>2019-12-08T15:48:11.827Z</time>
      </trkpt>
      <trkpt lat="44.04551" lon="5.38277">
        <ele>828</ele>
        <time>2019-12-08T15:48:12.827Z</time>
      </trkpt>
      <trkpt lat="44.04702" lon="5.38167">
        <ele>831</ele>
        <time>2019-12-08T15:48:13.827Z</time>
      </trkpt>
      <trkpt lat="44.04742" lon="5.38161">
        <ele>831</ele>
        <time>2019-12-08T15:48:14.827Z</time>
      </trkpt>
      <trkpt lat="44.04794" lon="5.38135">
        <ele>830</ele>
        <time>2019-12-08T15:48:15.827Z</time>
      </trkpt>
      <trkpt lat="44.04831" lon="5.38064">
        <ele>830</ele>
        <time>2019-12-08T15:48:16.827Z</time>
      </trkpt>
      <trkpt lat="44.04845" lon="5.38">
        <ele>830</ele>
        <time>2019-12-08T15:48:17.827Z</time>
      </trkpt>
      <trkpt lat="44.04881" lon="5.37963">
        <ele>829</ele>
        <time>2019-12-08T15:48:18.827Z</time>
      </trkpt>
      <trkpt lat="44.04913" lon="5.37923">
        <ele>828</ele>
        <time>2019-12-08T15:48:19.827Z</time>
      </trkpt>
      <trkpt lat="44.04959" lon="5.37901">
        <ele>825</ele>
        <time>2019-12-08T15:48:20.827Z</time>
      </trkpt>
      <trkpt lat="44.0501" lon="5.37841">
        <ele>822</ele>
        <time>2019-12-08T15:48:21.827Z</time>
      </trkpt>
      <trkpt lat="44.05006" lon="5.37753">
        <ele>819</ele>
        <time>2019-12-08T15:48:22.827Z</time>
      </trkpt>
      <trkpt lat="44.04967" lon="5.37691">
        <ele>814</ele>
        <time>2019-12-08T15:48:23.827Z</time>
      </trkpt>
      <trkpt lat="44.04895" lon="5.37639">
        <ele>808</ele>
        <time>2019-12-08T15:48:24.827Z</time>
      </trkpt>
      <trkpt lat="44.04946" lon="5.37624">
        <ele>808</ele>
        <time>2019-12-08T15:48:25.827Z</time>
      </trkpt>
      <trkpt lat="44.04992" lon="5.37599">
        <ele>809</ele>
        <time>2019-12-08T15:48:26.827Z</time>
      </trkpt>
      <trkpt lat="44.05035" lon="5.37547">
        <ele>807</ele>
        <time>2019-12-08T15:48:27.827Z</time>
      </trkpt>
      <trkpt lat="44.0508" lon="5.37541">
        <ele>806</ele>
        <time>2019-12-08T15:48:28.827Z</time>
      </trkpt>
      <trkpt lat="44.05154" lon="5.3756">
        <ele>802</ele>
        <time>2019-12-08T15:48:29.827Z</time>
      </trkpt>
      <trkpt lat="44.05188" lon="5.37524">
        <ele>796</ele>
        <time>2019-12-08T15:48:30.827Z</time>
      </trkpt>
      <trkpt lat="44.05245" lon="5.37526">
        <ele>791</ele>
        <time>2019-12-08T15:48:31.827Z</time>
      </trkpt>
      <trkpt lat="44.05306" lon="5.37479">
        <ele>784</ele>
        <time>2019-12-08T15:48:32.827Z</time>
      </trkpt>
      <trkpt lat="44.0536" lon="5.37457">
        <ele>781</ele>
        <time>2019-12-08T15:48:33.827Z</time>
      </trkpt>
      <trkpt lat="44.05393" lon="5.37403">
        <ele>777</ele>
        <time>2019-12-08T15:48:34.827Z</time>
      </trkpt>
      <trkpt lat="44.05451" lon="5.37363">
        <ele>774</ele>
        <time>2019-12-08T15:48:35.827Z</time>
      </trkpt>
      <trkpt lat="44.05501" lon="5.37376">
        <ele>775</ele>
        <time>2019-12-08T15:48:36.827Z</time>
      </trkpt>
      <trkpt lat="44.05553" lon="5.37333">
        <ele>770</ele>
        <time>2019-12-08T15:48:37.827Z</time>
      </trkpt>
      <trkpt lat="44.05592" lon="5.37343">
        <ele>768</ele>
        <time>2019-12-08T15:48:38.827Z</time>
      </trkpt>
      <trkpt lat="44.05664" lon="5.37305">
        <ele>762</ele>
        <time>2019-12-08T15:48:39.827Z</time>
      </trkpt>
      <trkpt lat="44.05724" lon="5.37324">
        <ele>761</ele>
        <time>2019-12-08T15:48:40.827Z</time>
      </trkpt>
      <trkpt lat="44.05795" lon="5.37283">
        <ele>757</ele>
        <time>2019-12-08T15:48:41.827Z</time>
      </trkpt>
      <trkpt lat="44.05848" lon="5.37273">
        <ele>756</ele>
        <time>2019-12-08T15:48:42.827Z</time>
      </trkpt>
      <trkpt lat="44.0598" lon="5.37221">
        <ele>746</ele>
        <time>2019-12-08T15:48:43.827Z</time>
      </trkpt>
      <trkpt lat="44.06037" lon="5.37163">
        <ele>739</ele>
        <time>2019-12-08T15:48:44.827Z</time>
      </trkpt>
      <trkpt lat="44.06096" lon="5.37137">
        <ele>734</ele>
        <time>2019-12-08T15:48:45.827Z</time>
      </trkpt>
      <trkpt lat="44.06134" lon="5.37077">
        <ele>729</ele>
        <time>2019-12-08T15:48:46.827Z</time>
      </trkpt>
      <trkpt lat="44.06175" lon="5.37045">
        <ele>725</ele>
        <time>2019-12-08T15:48:47.827Z</time>
      </trkpt>
      <trkpt lat="44.06225" lon="5.37009">
        <ele>722</ele>
        <time>2019-12-08T15:48:48.827Z</time>
      </trkpt>
      <trkpt lat="44.06273" lon="5.3694">
        <ele>719</ele>
        <time>2019-12-08T15:48:49.827Z</time>
      </trkpt>
      <trkpt lat="44.06366" lon="5.36837">
        <ele>713</ele>
        <time>2019-12-08T15:48:50.827Z</time>
      </trkpt>
      <trkpt lat="44.06415" lon="5.36758">
        <ele>707</ele>
        <time>2019-12-08T15:48:51.827Z</time>
      </trkpt>
      <trkpt lat="44.06431" lon="5.36689">
        <ele>702</ele>
        <time>2019-12-08T15:48:52.827Z</time>
      </trkpt>
      <trkpt lat="44.06458" lon="5.36627">
        <ele>697</ele>
        <time>2019-12-08T15:48:53.827Z</time>
      </trkpt>
      <trkpt lat="44.06511" lon="5.36564">
        <ele>688</ele>
        <time>2019-12-08T15:48:54.827Z</time>
      </trkpt>
      <trkpt lat="44.06491" lon="5.36539">
        <ele>683</ele>
        <time>2019-12-08T15:48:55.827Z</time>
      </trkpt>
      <trkpt lat="44.06597" lon="5.36436">
        <ele>660</ele>
        <time>2019-12-08T15:48:56.827Z</time>
      </trkpt>
      <trkpt lat="44.0662" lon="5.36412">
        <ele>655</ele>
        <time>2019-12-08T15:48:57.827Z</time>
      </trkpt>
      <trkpt lat="44.0666" lon="5.36408">
        <ele>656</ele>
        <time>2019-12-08T15:48:58.827Z</time>
      </trkpt>
      <trkpt lat="44.06731" lon="5.36285">
        <ele>638</ele>
        <time>2019-12-08T15:48:59.827Z</time>
      </trkpt>
      <trkpt lat="44.06751" lon="5.36228">
        <ele>636</ele>
        <time>2019-12-08T15:49:00.827Z</time>
      </trkpt>
      <trkpt lat="44.06734" lon="5.36167">
        <ele>637</ele>
        <time>2019-12-08T15:49:01.827Z</time>
      </trkpt>
      <trkpt lat="44.0675" lon="5.36077">
        <ele>640</ele>
        <time>2019-12-08T15:49:02.827Z</time>
      </trkpt>
      <trkpt lat="44.06745" lon="5.36026">
        <ele>647</ele>
        <time>2019-12-08T15:49:03.827Z</time>
      </trkpt>
      <trkpt lat="44.06572" lon="5.35816">
        <ele>655</ele>
        <time>2019-12-08T15:49:04.827Z</time>
      </trkpt>
    </trkseg>
  </trk>
</gpx>